Hlavní strana
METAR-TAF:

METAR-TAF

Letiště :

Roanoke Regional Airport (Woodrum Field)

Roanoke, Virginie, Spojené státy americké

zeměpisná šířka: 37-19-01N, zeměpisná délka: 079-58-27W, výška: 358 m

Aktuální stav počasí

Zpráva byla vytvořena před 26 minutami, v 03:54 UTC
Severní vítr 7 kt
Teplota 8°C
Vlhkost vzduchu 49%
Tlak 1027 hPa
Viditelnost: 16.1 km
Jasno

METAR: KROA 310354Z 35007KT 10SM CLR 08/M02 A3033 RMK AO2 SLP270 T00781017 $

Čas: 00:20 (04:20 UTC)

Předpověď počasí

Zpráva byla vytvořena před 4 hodinami a 59 minutami, v 23:21 UTC
Předpověď platná od 31 v 00 UTC do 31 v 24 UTC
Severozápadní vítr 9 kt
Viditelnost: 10 km
Polojasno ve výšce 4500 ft
Od 31 v 0300 UTC
Severozápadní vítr 5 kt
Viditelnost: 10 km
Skoro jasno ve výšce 5000 ft
Od 31 v 1500 UTC
Jihovýchodní vítr 5 kt
Viditelnost: 10 km
Polojasno ve výšce 4500 ft

TAF: KROA 302321Z 3100/3124 31009KT P6SM SCT045 FM310300 32005KT P6SM FEW050 FM311500 14005KT P6SM SCT045

Stav a předpovědi počasí z více než 4 000 letišť (zprávy METAR a TAF).

Červené a žluté tečky na mapě představují dostupné meteorologické stanice.

Když kurzor umístíte na tečku, zobrazí se název stanice.

Pak kliknutím zobrazíte stav a předpověď počasí.

Chcete-li změnit mapu, kliknutím na zelené tlačítko se znaménkem +mapu přiblížíte, kliknutím na zelené tlačítko se znaménkem – mapu oddálíte a kliknutím na zelené šipky přejdete na sousední mapy.


METAR-TAF: